sensor_id;sensor_type;location;lat;lon;timestamp;P1;durP1;ratioP1;P2;durP2;ratioP2
59442;SDS011;45247;47.466;19.004;2023-04-24T00:01:47;6.07;;;3.80;;
59442;SDS011;45247;47.466;19.004;2023-04-24T00:04:18;6.03;;;3.67;;
59442;SDS011;45247;47.466;19.004;2023-04-24T00:06:46;6.13;;;4.03;;
59442;SDS011;45247;47.466;19.004;2023-04-24T00:09:15;7.30;;;4.13;;
59442;SDS011;45247;47.466;19.004;2023-04-24T00:11:44;5.70;;;4.10;;
59442;SDS011;45247;47.466;19.004;2023-04-24T00:14:12;5.50;;;3.97;;
59442;SDS011;45247;47.466;19.004;2023-04-24T00:16:40;4.53;;;3.47;;
59442;SDS011;45247;47.466;19.004;2023-04-24T00:19:08;6.13;;;3.78;;
59442;SDS011;45247;47.466;19.004;2023-04-24T00:21:39;4.68;;;3.40;;
59442;SDS011;45247;47.466;19.004;2023-04-24T00:24:08;6.18;;;3.58;;
59442;SDS011;45247;47.466;19.004;2023-04-24T00:26:36;7.10;;;4.13;;
59442;SDS011;45247;47.466;19.004;2023-04-24T00:29:04;6.32;;;3.50;;
59442;SDS011;45247;47.466;19.004;2023-04-24T00:31:33;5.55;;;3.45;;
59442;SDS011;45247;47.466;19.004;2023-04-24T00:34:01;3.85;;;2.97;;
59442;SDS011;45247;47.466;19.004;2023-04-24T00:36:30;5.43;;;3.47;;
59442;SDS011;45247;47.466;19.004;2023-04-24T00:38:59;5.28;;;3.30;;
59442;SDS011;45247;47.466;19.004;2023-04-24T00:41:28;8.07;;;4.07;;
59442;SDS011;45247;47.466;19.004;2023-04-24T00:43:57;4.97;;;3.88;;
59442;SDS011;45247;47.466;19.004;2023-04-24T00:46:25;7.88;;;3.42;;
59442;SDS011;45247;47.466;19.004;2023-04-24T00:48:54;9.93;;;4.30;;
59442;SDS011;45247;47.466;19.004;2023-04-24T00:51:23;6.82;;;3.95;;
59442;SDS011;45247;47.466;19.004;2023-04-24T00:53:52;5.38;;;4.30;;
59442;SDS011;45247;47.466;19.004;2023-04-24T00:56:21;6.15;;;3.70;;
59442;SDS011;45247;47.466;19.004;2023-04-24T00:58:49;5.90;;;3.50;;
59442;SDS011;45247;47.466;19.004;2023-04-24T01:01:18;6.53;;;4.07;;
59442;SDS011;45247;47.466;19.004;2023-04-24T01:03:48;6.05;;;4.15;;
59442;SDS011;45247;47.466;19.004;2023-04-24T01:06:19;4.72;;;3.65;;
59442;SDS011;45247;47.466;19.004;2023-04-24T01:08:48;8.15;;;4.20;;
59442;SDS011;45247;47.466;19.004;2023-04-24T01:11:16;6.55;;;3.83;;
59442;SDS011;45247;47.466;19.004;2023-04-24T01:13:47;9.07;;;4.20;;
59442;SDS011;45247;47.466;19.004;2023-04-24T01:16:15;7.88;;;3.78;;
59442;SDS011;45247;47.466;19.004;2023-04-24T01:18:44;4.78;;;3.90;;
59442;SDS011;45247;47.466;19.004;2023-04-24T01:21:13;5.72;;;4.00;;
59442;SDS011;45247;47.466;19.004;2023-04-24T01:23:44;5.93;;;3.90;;
59442;SDS011;45247;47.466;19.004;2023-04-24T01:26:14;10.48;;;4.07;;
59442;SDS011;45247;47.466;19.004;2023-04-24T01:28:43;5.05;;;3.53;;
59442;SDS011;45247;47.466;19.004;2023-04-24T01:31:11;8.85;;;4.03;;
59442;SDS011;45247;47.466;19.004;2023-04-24T01:33:40;6.00;;;3.22;;
59442;SDS011;45247;47.466;19.004;2023-04-24T01:36:09;5.75;;;4.03;;
59442;SDS011;45247;47.466;19.004;2023-04-24T01:38:38;4.95;;;3.58;;
59442;SDS011;45247;47.466;19.004;2023-04-24T01:41:08;5.35;;;4.10;;
59442;SDS011;45247;47.466;19.004;2023-04-24T01:43:37;5.70;;;4.30;;
59442;SDS011;45247;47.466;19.004;2023-04-24T01:46:05;8.77;;;4.28;;
59442;SDS011;45247;47.466;19.004;2023-04-24T01:48:34;8.40;;;4.32;;
59442;SDS011;45247;47.466;19.004;2023-04-24T01:51:03;7.20;;;4.57;;
59442;SDS011;45247;47.466;19.004;2023-04-24T01:53:31;6.10;;;4.05;;
59442;SDS011;45247;47.466;19.004;2023-04-24T01:55:59;5.15;;;3.95;;
59442;SDS011;45247;47.466;19.004;2023-04-24T01:58:29;5.95;;;4.13;;
59442;SDS011;45247;47.466;19.004;2023-04-24T02:00:58;7.07;;;4.50;;
59442;SDS011;45247;47.466;19.004;2023-04-24T02:03:27;7.18;;;5.18;;
59442;SDS011;45247;47.466;19.004;2023-04-24T02:05:55;6.93;;;4.65;;
59442;SDS011;45247;47.466;19.004;2023-04-24T02:08:23;6.30;;;4.65;;
59442;SDS011;45247;47.466;19.004;2023-04-24T02:10:51;5.68;;;4.68;;
59442;SDS011;45247;47.466;19.004;2023-04-24T02:13:19;6.65;;;5.15;;
59442;SDS011;45247;47.466;19.004;2023-04-24T02:15:49;7.90;;;5.55;;
59442;SDS011;45247;47.466;19.004;2023-04-24T02:18:17;6.53;;;4.85;;
59442;SDS011;45247;47.466;19.004;2023-04-24T02:20:45;8.48;;;5.05;;
59442;SDS011;45247;47.466;19.004;2023-04-24T02:23:13;6.35;;;4.82;;
59442;SDS011;45247;47.466;19.004;2023-04-24T02:25:41;7.85;;;5.30;;
59442;SDS011;45247;47.466;19.004;2023-04-24T02:28:09;8.27;;;5.50;;
59442;SDS011;45247;47.466;19.004;2023-04-24T02:30:37;10.32;;;5.45;;
59442;SDS011;45247;47.466;19.004;2023-04-24T02:33:07;9.10;;;5.28;;
59442;SDS011;45247;47.466;19.004;2023-04-24T02:35:35;5.60;;;4.72;;
59442;SDS011;45247;47.466;19.004;2023-04-24T02:38:03;7.13;;;5.20;;
59442;SDS011;45247;47.466;19.004;2023-04-24T02:40:31;6.80;;;5.60;;
59442;SDS011;45247;47.466;19.004;2023-04-24T02:42:59;6.63;;;5.25;;
59442;SDS011;45247;47.466;19.004;2023-04-24T02:45:27;8.95;;;5.28;;
59442;SDS011;45247;47.466;19.004;2023-04-24T02:47:56;5.97;;;5.35;;
59442;SDS011;45247;47.466;19.004;2023-04-24T02:50:25;9.77;;;5.05;;
59442;SDS011;45247;47.466;19.004;2023-04-24T02:52:53;8.32;;;4.85;;
59442;SDS011;45247;47.466;19.004;2023-04-24T02:55:21;11.18;;;6.05;;
59442;SDS011;45247;47.466;19.004;2023-04-24T02:57:50;7.32;;;5.63;;
59442;SDS011;45247;47.466;19.004;2023-04-24T03:00:18;9.50;;;5.47;;
59442;SDS011;45247;47.466;19.004;2023-04-24T03:02:46;13.13;;;5.65;;
59442;SDS011;45247;47.466;19.004;2023-04-24T03:05:16;8.07;;;5.50;;
59442;SDS011;45247;47.466;19.004;2023-04-24T03:07:45;6.53;;;5.45;;
59442;SDS011;45247;47.466;19.004;2023-04-24T03:10:13;6.40;;;5.43;;
59442;SDS011;45247;47.466;19.004;2023-04-24T03:12:42;8.80;;;5.30;;
59442;SDS011;45247;47.466;19.004;2023-04-24T03:15:10;10.20;;;5.32;;
59442;SDS011;45247;47.466;19.004;2023-04-24T03:17:38;7.95;;;4.80;;
59442;SDS011;45247;47.466;19.004;2023-04-24T03:20:07;7.57;;;4.75;;
59442;SDS011;45247;47.466;19.004;2023-04-24T03:22:36;6.15;;;5.32;;
59442;SDS011;45247;47.466;19.004;2023-04-24T03:25:06;7.45;;;5.28;;
59442;SDS011;45247;47.466;19.004;2023-04-24T03:27:35;7.00;;;5.55;;
59442;SDS011;45247;47.466;19.004;2023-04-24T03:30:07;7.32;;;5.88;;
59442;SDS011;45247;47.466;19.004;2023-04-24T03:32:35;5.88;;;5.28;;
59442;SDS011;45247;47.466;19.004;2023-04-24T03:35:06;7.53;;;6.10;;
59442;SDS011;45247;47.466;19.004;2023-04-24T03:37:34;8.82;;;5.85;;
59442;SDS011;45247;47.466;19.004;2023-04-24T03:40:08;7.05;;;5.20;;
59442;SDS011;45247;47.466;19.004;2023-04-24T03:42:36;7.03;;;5.43;;
59442;SDS011;45247;47.466;19.004;2023-04-24T03:45:05;6.13;;;5.50;;
59442;SDS011;45247;47.466;19.004;2023-04-24T03:47:34;8.55;;;5.93;;
59442;SDS011;45247;47.466;19.004;2023-04-24T03:50:03;7.70;;;5.35;;
59442;SDS011;45247;47.466;19.004;2023-04-24T03:52:31;6.60;;;5.30;;
59442;SDS011;45247;47.466;19.004;2023-04-24T03:54:59;7.72;;;5.47;;
59442;SDS011;45247;47.466;19.004;2023-04-24T03:57:29;9.07;;;5.32;;
59442;SDS011;45247;47.466;19.004;2023-04-24T03:59:57;7.18;;;5.70;;
59442;SDS011;45247;47.466;19.004;2023-04-24T04:02:25;6.70;;;5.65;;
59442;SDS011;45247;47.466;19.004;2023-04-24T04:04:53;6.60;;;5.40;;
59442;SDS011;45247;47.466;19.004;2023-04-24T04:07:22;13.20;;;5.53;;
59442;SDS011;45247;47.466;19.004;2023-04-24T04:09:50;6.57;;;5.35;;
59442;SDS011;45247;47.466;19.004;2023-04-24T04:12:18;8.65;;;5.93;;
59442;SDS011;45247;47.466;19.004;2023-04-24T04:14:47;7.63;;;5.53;;
59442;SDS011;45247;47.466;19.004;2023-04-24T04:17:16;7.47;;;4.93;;
59442;SDS011;45247;47.466;19.004;2023-04-24T04:19:44;7.28;;;5.53;;
59442;SDS011;45247;47.466;19.004;2023-04-24T04:22:12;8.68;;;5.38;;
59442;SDS011;45247;47.466;19.004;2023-04-24T04:24:40;8.90;;;5.20;;
59442;SDS011;45247;47.466;19.004;2023-04-24T04:27:09;8.05;;;5.40;;
59442;SDS011;45247;47.466;19.004;2023-04-24T04:29:37;7.22;;;5.55;;
59442;SDS011;45247;47.466;19.004;2023-04-24T04:32:08;10.32;;;6.70;;
59442;SDS011;45247;47.466;19.004;2023-04-24T04:34:36;6.75;;;5.07;;
59442;SDS011;45247;47.466;19.004;2023-04-24T04:37:06;8.98;;;5.45;;
59442;SDS011;45247;47.466;19.004;2023-04-24T04:39:34;8.25;;;6.18;;
59442;SDS011;45247;47.466;19.004;2023-04-24T04:42:03;7.78;;;5.35;;
59442;SDS011;45247;47.466;19.004;2023-04-24T04:44:33;8.00;;;5.68;;
59442;SDS011;45247;47.466;19.004;2023-04-24T04:47:02;8.00;;;5.78;;
59442;SDS011;45247;47.466;19.004;2023-04-24T04:49:33;7.68;;;5.18;;
59442;SDS011;45247;47.466;19.004;2023-04-24T04:52:01;9.93;;;5.70;;
59442;SDS011;45247;47.466;19.004;2023-04-24T04:54:29;7.90;;;5.90;;
59442;SDS011;45247;47.466;19.004;2023-04-24T04:56:57;7.97;;;5.30;;
59442;SDS011;45247;47.466;19.004;2023-04-24T04:59:29;11.55;;;5.72;;
59442;SDS011;45247;47.466;19.004;2023-04-24T05:01:57;7.82;;;5.40;;
59442;SDS011;45247;47.466;19.004;2023-04-24T05:04:26;9.57;;;6.97;;
59442;SDS011;45247;47.466;19.004;2023-04-24T05:06:56;7.70;;;5.30;;
59442;SDS011;45247;47.466;19.004;2023-04-24T05:09:24;9.95;;;6.20;;
59442;SDS011;45247;47.466;19.004;2023-04-24T05:11:53;7.88;;;5.60;;
59442;SDS011;45247;47.466;19.004;2023-04-24T05:14:21;6.95;;;5.50;;
59442;SDS011;45247;47.466;19.004;2023-04-24T05:16:49;10.07;;;6.45;;
59442;SDS011;45247;47.466;19.004;2023-04-24T05:19:18;6.00;;;5.18;;
59442;SDS011;45247;47.466;19.004;2023-04-24T05:21:46;8.23;;;6.03;;
59442;SDS011;45247;47.466;19.004;2023-04-24T05:24:15;11.07;;;5.55;;
59442;SDS011;45247;47.466;19.004;2023-04-24T05:26:43;12.55;;;5.60;;
59442;SDS011;45247;47.466;19.004;2023-04-24T05:29:12;7.45;;;5.75;;
59442;SDS011;45247;47.466;19.004;2023-04-24T05:31:40;7.38;;;5.57;;
59442;SDS011;45247;47.466;19.004;2023-04-24T05:34:08;10.00;;;5.50;;
59442;SDS011;45247;47.466;19.004;2023-04-24T05:36:36;8.07;;;5.65;;
59442;SDS011;45247;47.466;19.004;2023-04-24T05:39:04;10.18;;;5.38;;
59442;SDS011;45247;47.466;19.004;2023-04-24T05:41:35;6.25;;;4.88;;
59442;SDS011;45247;47.466;19.004;2023-04-24T05:44:03;7.65;;;5.63;;
59442;SDS011;45247;47.466;19.004;2023-04-24T05:46:31;7.63;;;5.53;;
59442;SDS011;45247;47.466;19.004;2023-04-24T05:48:59;10.73;;;6.10;;
59442;SDS011;45247;47.466;19.004;2023-04-24T05:51:28;8.45;;;5.65;;
59442;SDS011;45247;47.466;19.004;2023-04-24T05:53:56;6.35;;;5.50;;
59442;SDS011;45247;47.466;19.004;2023-04-24T05:56:25;11.20;;;6.07;;
59442;SDS011;45247;47.466;19.004;2023-04-24T05:58:54;8.57;;;5.15;;
59442;SDS011;45247;47.466;19.004;2023-04-24T06:01:22;11.68;;;5.40;;
59442;SDS011;45247;47.466;19.004;2023-04-24T06:03:51;14.40;;;6.30;;
59442;SDS011;45247;47.466;19.004;2023-04-24T06:06:20;9.50;;;5.85;;
59442;SDS011;45247;47.466;19.004;2023-04-24T06:08:48;11.95;;;5.43;;
59442;SDS011;45247;47.466;19.004;2023-04-24T06:11:16;7.45;;;5.40;;
59442;SDS011;45247;47.466;19.004;2023-04-24T06:13:44;5.82;;;4.75;;
59442;SDS011;45247;47.466;19.004;2023-04-24T06:16:13;8.13;;;5.10;;
59442;SDS011;45247;47.466;19.004;2023-04-24T06:18:42;5.88;;;5.00;;
59442;SDS011;45247;47.466;19.004;2023-04-24T06:21:13;8.20;;;4.95;;
59442;SDS011;45247;47.466;19.004;2023-04-24T06:23:42;6.97;;;4.78;;
59442;SDS011;45247;47.466;19.004;2023-04-24T06:26:12;6.97;;;5.15;;
59442;SDS011;45247;47.466;19.004;2023-04-24T06:28:41;9.80;;;5.00;;
59442;SDS011;45247;47.466;19.004;2023-04-24T06:31:09;7.32;;;4.97;;
59442;SDS011;45247;47.466;19.004;2023-04-24T06:33:38;10.30;;;5.90;;
59442;SDS011;45247;47.466;19.004;2023-04-24T06:36:06;17.85;;;7.78;;
59442;SDS011;45247;47.466;19.004;2023-04-24T06:38:35;13.90;;;6.28;;
59442;SDS011;45247;47.466;19.004;2023-04-24T06:41:03;8.45;;;5.75;;
59442;SDS011;45247;47.466;19.004;2023-04-24T06:43:31;8.48;;;5.65;;
59442;SDS011;45247;47.466;19.004;2023-04-24T06:45:59;9.00;;;5.55;;
59442;SDS011;45247;47.466;19.004;2023-04-24T06:48:29;9.82;;;6.03;;
59442;SDS011;45247;47.466;19.004;2023-04-24T06:50:59;7.55;;;5.47;;
59442;SDS011;45247;47.466;19.004;2023-04-24T06:53:27;7.00;;;5.43;;
59442;SDS011;45247;47.466;19.004;2023-04-24T06:55:56;8.73;;;6.15;;
59442;SDS011;45247;47.466;19.004;2023-04-24T06:58:24;9.73;;;6.03;;
59442;SDS011;45247;47.466;19.004;2023-04-24T07:00:52;5.80;;;5.20;;
59442;SDS011;45247;47.466;19.004;2023-04-24T07:03:20;6.78;;;5.57;;
59442;SDS011;45247;47.466;19.004;2023-04-24T07:05:49;8.85;;;6.32;;
59442;SDS011;45247;47.466;19.004;2023-04-24T07:08:19;7.28;;;5.60;;
59442;SDS011;45247;47.466;19.004;2023-04-24T07:10:48;8.20;;;4.82;;
59442;SDS011;45247;47.466;19.004;2023-04-24T07:13:17;8.85;;;5.85;;
59442;SDS011;45247;47.466;19.004;2023-04-24T07:15:45;7.93;;;5.20;;
59442;SDS011;45247;47.466;19.004;2023-04-24T07:18:15;6.70;;;5.45;;
59442;SDS011;45247;47.466;19.004;2023-04-24T07:20:43;10.32;;;5.93;;
59442;SDS011;45247;47.466;19.004;2023-04-24T07:23:12;7.57;;;5.88;;
59442;SDS011;45247;47.466;19.004;2023-04-24T07:25:41;11.27;;;6.18;;
59442;SDS011;45247;47.466;19.004;2023-04-24T07:28:11;6.65;;;5.68;;
59442;SDS011;45247;47.466;19.004;2023-04-24T07:30:39;6.18;;;4.95;;
59442;SDS011;45247;47.466;19.004;2023-04-24T07:33:08;9.23;;;5.35;;
59442;SDS011;45247;47.466;19.004;2023-04-24T07:35:37;7.97;;;4.97;;
59442;SDS011;45247;47.466;19.004;2023-04-24T07:38:06;10.30;;;5.32;;
59442;SDS011;45247;47.466;19.004;2023-04-24T07:40:34;5.43;;;4.78;;
59442;SDS011;45247;47.466;19.004;2023-04-24T07:43:03;7.13;;;5.32;;
59442;SDS011;45247;47.466;19.004;2023-04-24T07:45:31;7.68;;;4.78;;
59442;SDS011;45247;47.466;19.004;2023-04-24T07:48:02;8.98;;;5.63;;
59442;SDS011;45247;47.466;19.004;2023-04-24T07:50:31;8.07;;;5.22;;
59442;SDS011;45247;47.466;19.004;2023-04-24T07:52:59;7.47;;;5.15;;
59442;SDS011;45247;47.466;19.004;2023-04-24T07:55:27;7.93;;;5.22;;
59442;SDS011;45247;47.466;19.004;2023-04-24T07:57:55;10.35;;;5.20;;
59442;SDS011;45247;47.466;19.004;2023-04-24T08:00:25;12.15;;;5.38;;
59442;SDS011;45247;47.466;19.004;2023-04-24T08:02:53;8.10;;;5.47;;
59442;SDS011;45247;47.466;19.004;2023-04-24T08:05:21;7.57;;;4.75;;
59442;SDS011;45247;47.466;19.004;2023-04-24T08:07:52;7.72;;;5.30;;
59442;SDS011;45247;47.466;19.004;2023-04-24T08:10:20;13.20;;;4.70;;
59442;SDS011;45247;47.466;19.004;2023-04-24T08:12:49;8.07;;;4.80;;
59442;SDS011;45247;47.466;19.004;2023-04-24T08:15:17;6.60;;;4.88;;
59442;SDS011;45247;47.466;19.004;2023-04-24T08:17:47;7.38;;;4.80;;
59442;SDS011;45247;47.466;19.004;2023-04-24T08:20:16;7.15;;;4.80;;
59442;SDS011;45247;47.466;19.004;2023-04-24T08:22:44;7.15;;;4.80;;
59442;SDS011;45247;47.466;19.004;2023-04-24T08:25:14;7.18;;;4.55;;
59442;SDS011;45247;47.466;19.004;2023-04-24T08:27:42;6.88;;;4.50;;
59442;SDS011;45247;47.466;19.004;2023-04-24T08:30:10;9.73;;;5.22;;
59442;SDS011;45247;47.466;19.004;2023-04-24T08:32:39;7.32;;;5.25;;
59442;SDS011;45247;47.466;19.004;2023-04-24T08:35:09;8.60;;;5.22;;
59442;SDS011;45247;47.466;19.004;2023-04-24T08:37:37;8.90;;;5.22;;
59442;SDS011;45247;47.466;19.004;2023-04-24T08:40:06;9.07;;;4.82;;
59442;SDS011;45247;47.466;19.004;2023-04-24T08:42:41;8.13;;;5.22;;
59442;SDS011;45247;47.466;19.004;2023-04-24T08:45:11;8.25;;;5.38;;
59442;SDS011;45247;47.466;19.004;2023-04-24T08:47:40;6.03;;;4.82;;
59442;SDS011;45247;47.466;19.004;2023-04-24T08:50:12;7.00;;;4.80;;
59442;SDS011;45247;47.466;19.004;2023-04-24T08:52:41;5.43;;;4.43;;
59442;SDS011;45247;47.466;19.004;2023-04-24T08:55:10;9.98;;;4.85;;
59442;SDS011;45247;47.466;19.004;2023-04-24T08:57:38;5.63;;;4.53;;
59442;SDS011;45247;47.466;19.004;2023-04-24T09:00:10;4.63;;;4.18;;
59442;SDS011;45247;47.466;19.004;2023-04-24T09:02:39;8.48;;;4.32;;
59442;SDS011;45247;47.466;19.004;2023-04-24T09:05:12;5.45;;;4.07;;
59442;SDS011;45247;47.466;19.004;2023-04-24T09:07:41;5.47;;;3.88;;
59442;SDS011;45247;47.466;19.004;2023-04-24T09:10:14;8.18;;;3.88;;
59442;SDS011;45247;47.466;19.004;2023-04-24T09:12:42;6.85;;;3.90;;
59442;SDS011;45247;47.466;19.004;2023-04-24T09:15:14;7.82;;;4.28;;
59442;SDS011;45247;47.466;19.004;2023-04-24T09:17:43;6.30;;;4.72;;
59442;SDS011;45247;47.466;19.004;2023-04-24T09:20:13;5.72;;;4.22;;
59442;SDS011;45247;47.466;19.004;2023-04-24T09:22:42;5.15;;;3.97;;
59442;SDS011;45247;47.466;19.004;2023-04-24T09:25:13;4.85;;;3.92;;
59442;SDS011;45247;47.466;19.004;2023-04-24T09:27:42;5.25;;;3.63;;
59442;SDS011;45247;47.466;19.004;2023-04-24T09:30:11;8.27;;;3.92;;
59442;SDS011;45247;47.466;19.004;2023-04-24T09:32:40;4.63;;;3.58;;
59442;SDS011;45247;47.466;19.004;2023-04-24T09:35:09;5.63;;;3.95;;
59442;SDS011;45247;47.466;19.004;2023-04-24T09:37:41;6.15;;;3.92;;
59442;SDS011;45247;47.466;19.004;2023-04-24T09:40:10;4.97;;;3.60;;
59442;SDS011;45247;47.466;19.004;2023-04-24T09:42:43;5.30;;;3.70;;
59442;SDS011;45247;47.466;19.004;2023-04-24T09:45:13;7.25;;;3.67;;
59442;SDS011;45247;47.466;19.004;2023-04-24T09:47:41;4.70;;;3.03;;
59442;SDS011;45247;47.466;19.004;2023-04-24T09:50:13;7.45;;;3.65;;
59442;SDS011;45247;47.466;19.004;2023-04-24T09:52:47;9.15;;;3.30;;
59442;SDS011;45247;47.466;19.004;2023-04-24T09:55:24;5.40;;;3.65;;
59442;SDS011;45247;47.466;19.004;2023-04-24T09:57:54;4.07;;;3.22;;
59442;SDS011;45247;47.466;19.004;2023-04-24T10:00:23;6.60;;;4.07;;
59442;SDS011;45247;47.466;19.004;2023-04-24T10:02:56;7.28;;;3.60;;
59442;SDS011;45247;47.466;19.004;2023-04-24T10:07:59;7.30;;;3.55;;
59442;SDS011;45247;47.466;19.004;2023-04-24T10:10:29;5.03;;;3.70;;
59442;SDS011;45247;47.466;19.004;2023-04-24T10:12:58;5.20;;;3.35;;
59442;SDS011;45247;47.466;19.004;2023-04-24T10:15:27;5.07;;;3.35;;
59442;SDS011;45247;47.466;19.004;2023-04-24T10:17:55;6.90;;;4.03;;
59442;SDS011;45247;47.466;19.004;2023-04-24T10:20:26;5.82;;;3.90;;
59442;SDS011;45247;47.466;19.004;2023-04-24T10:22:57;6.10;;;4.05;;
59442;SDS011;45247;47.466;19.004;2023-04-24T10:25:28;5.68;;;3.67;;
59442;SDS011;45247;47.466;19.004;2023-04-24T10:27:58;5.07;;;3.78;;
59442;SDS011;45247;47.466;19.004;2023-04-24T10:30:28;4.97;;;3.85;;
59442;SDS011;45247;47.466;19.004;2023-04-24T10:33:00;7.55;;;4.75;;
59442;SDS011;45247;47.466;19.004;2023-04-24T10:35:30;4.95;;;3.80;;
59442;SDS011;45247;47.466;19.004;2023-04-24T10:38:01;5.90;;;4.03;;
59442;SDS011;45247;47.466;19.004;2023-04-24T10:40:41;6.18;;;4.13;;
59442;SDS011;45247;47.466;19.004;2023-04-24T10:43:10;6.78;;;4.78;;
59442;SDS011;45247;47.466;19.004;2023-04-24T10:45:38;6.15;;;3.90;;
59442;SDS011;45247;47.466;19.004;2023-04-24T10:48:07;7.00;;;4.20;;
59442;SDS011;45247;47.466;19.004;2023-04-24T10:50:44;7.25;;;4.43;;
59442;SDS011;45247;47.466;19.004;2023-04-24T10:53:15;6.18;;;4.57;;
59442;SDS011;45247;47.466;19.004;2023-04-24T10:55:46;7.05;;;4.22;;
59442;SDS011;45247;47.466;19.004;2023-04-24T10:58:16;6.22;;;4.03;;
59442;SDS011;45247;47.466;19.004;2023-04-24T11:00:55;7.95;;;4.65;;
59442;SDS011;45247;47.466;19.004;2023-04-24T11:03:26;8.85;;;5.90;;
59442;SDS011;45247;47.466;19.004;2023-04-24T11:05:56;9.02;;;4.90;;
59442;SDS011;45247;47.466;19.004;2023-04-24T11:08:28;6.65;;;4.35;;
59442;SDS011;45247;47.466;19.004;2023-04-24T11:10:59;8.38;;;4.20;;
59442;SDS011;45247;47.466;19.004;2023-04-24T11:16:47;8.80;;;4.90;;
59442;SDS011;45247;47.466;19.004;2023-04-24T11:19:23;6.25;;;4.05;;
59442;SDS011;45247;47.466;19.004;2023-04-24T11:21:57;5.45;;;4.10;;
59442;SDS011;45247;47.466;19.004;2023-04-24T11:24:31;6.68;;;4.30;;
59442;SDS011;45247;47.466;19.004;2023-04-24T11:27:14;6.65;;;4.40;;
59442;SDS011;45247;47.466;19.004;2023-04-24T11:29:45;8.23;;;4.63;;
59442;SDS011;45247;47.466;19.004;2023-04-24T11:32:19;7.30;;;5.20;;
59442;SDS011;45247;47.466;19.004;2023-04-24T11:34:52;6.22;;;4.60;;
59442;SDS011;45247;47.466;19.004;2023-04-24T11:37:21;5.13;;;4.00;;
59442;SDS011;45247;47.466;19.004;2023-04-24T11:39:52;9.07;;;4.47;;
59442;SDS011;45247;47.466;19.004;2023-04-24T11:42:22;7.82;;;4.53;;
59442;SDS011;45247;47.466;19.004;2023-04-24T11:44:52;6.47;;;4.35;;
59442;SDS011;45247;47.466;19.004;2023-04-24T11:47:27;8.18;;;4.88;;
59442;SDS011;45247;47.466;19.004;2023-04-24T11:49:56;6.40;;;4.15;;
59442;SDS011;45247;47.466;19.004;2023-04-24T11:52:26;6.57;;;4.32;;
59442;SDS011;45247;47.466;19.004;2023-04-24T11:54:56;7.00;;;3.72;;
59442;SDS011;45247;47.466;19.004;2023-04-24T11:57:28;6.47;;;3.60;;
59442;SDS011;45247;47.466;19.004;2023-04-24T12:00:00;5.22;;;3.38;;
59442;SDS011;45247;47.466;19.004;2023-04-24T12:02:32;8.75;;;4.13;;
59442;SDS011;45247;47.466;19.004;2023-04-24T12:05:02;6.97;;;3.90;;
59442;SDS011;45247;47.466;19.004;2023-04-24T12:07:31;6.15;;;3.63;;
59442;SDS011;45247;47.466;19.004;2023-04-24T12:10:11;5.60;;;3.65;;
59442;SDS011;45247;47.466;19.004;2023-04-24T12:12:39;5.90;;;2.90;;
59442;SDS011;45247;47.466;19.004;2023-04-24T12:15:07;4.65;;;2.75;;
59442;SDS011;45247;47.466;19.004;2023-04-24T12:17:36;4.10;;;2.67;;
59442;SDS011;45247;47.466;19.004;2023-04-24T12:20:10;8.70;;;5.07;;
59442;SDS011;45247;47.466;19.004;2023-04-24T12:22:43;7.72;;;5.40;;
59442;SDS011;45247;47.466;19.004;2023-04-24T12:25:15;7.30;;;5.00;;
59442;SDS011;45247;47.466;19.004;2023-04-24T12:27:44;8.47;;;5.50;;
59442;SDS011;45247;47.466;19.004;2023-04-24T12:30:15;9.48;;;4.90;;
59442;SDS011;45247;47.466;19.004;2023-04-24T12:32:45;7.47;;;4.95;;
59442;SDS011;45247;47.466;19.004;2023-04-24T12:35:18;7.53;;;4.97;;
59442;SDS011;45247;47.466;19.004;2023-04-24T12:37:48;6.00;;;4.80;;
59442;SDS011;45247;47.466;19.004;2023-04-24T12:40:19;7.88;;;4.85;;
59442;SDS011;45247;47.466;19.004;2023-04-24T12:42:48;6.40;;;4.77;;
59442;SDS011;45247;47.466;19.004;2023-04-24T12:45:17;8.48;;;4.22;;
59442;SDS011;45247;47.466;19.004;2023-04-24T12:47:46;8.68;;;4.82;;
59442;SDS011;45247;47.466;19.004;2023-04-24T12:50:18;5.80;;;4.38;;
59442;SDS011;45247;47.466;19.004;2023-04-24T12:52:46;6.55;;;4.30;;
59442;SDS011;45247;47.466;19.004;2023-04-24T12:55:15;5.18;;;3.20;;
59442;SDS011;45247;47.466;19.004;2023-04-24T12:57:44;8.90;;;3.15;;
59442;SDS011;45247;47.466;19.004;2023-04-24T13:00:13;4.18;;;3.17;;
59442;SDS011;45247;47.466;19.004;2023-04-24T13:05:18;5.70;;;3.25;;
59442;SDS011;45247;47.466;19.004;2023-04-24T13:07:50;4.20;;;3.17;;
59442;SDS011;45247;47.466;19.004;2023-04-24T13:10:18;4.00;;;2.88;;
59442;SDS011;45247;47.466;19.004;2023-04-24T13:12:48;5.65;;;3.40;;
59442;SDS011;45247;47.466;19.004;2023-04-24T13:15:17;6.07;;;3.10;;
59442;SDS011;45247;47.466;19.004;2023-04-24T13:17:45;5.05;;;3.10;;
59442;SDS011;45247;47.466;19.004;2023-04-24T13:20:14;4.03;;;2.97;;
59442;SDS011;45247;47.466;19.004;2023-04-24T13:22:42;4.50;;;3.00;;
59442;SDS011;45247;47.466;19.004;2023-04-24T13:25:10;6.28;;;2.78;;
59442;SDS011;45247;47.466;19.004;2023-04-24T13:27:38;7.40;;;2.70;;
59442;SDS011;45247;47.466;19.004;2023-04-24T13:30:08;4.05;;;2.50;;
59442;SDS011;45247;47.466;19.004;2023-04-24T13:32:37;4.13;;;2.75;;
59442;SDS011;45247;47.466;19.004;2023-04-24T13:35:06;5.43;;;2.63;;
59442;SDS011;45247;47.466;19.004;2023-04-24T13:37:34;6.15;;;2.90;;
59442;SDS011;45247;47.466;19.004;2023-04-24T13:40:03;3.55;;;2.40;;
59442;SDS011;45247;47.466;19.004;2023-04-24T13:42:33;6.82;;;2.80;;
59442;SDS011;45247;47.466;19.004;2023-04-24T13:45:01;4.60;;;2.58;;
59442;SDS011;45247;47.466;19.004;2023-04-24T13:47:51;4.72;;;2.63;;
59442;SDS011;45247;47.466;19.004;2023-04-24T13:50:20;3.80;;;3.20;;
59442;SDS011;45247;47.466;19.004;2023-04-24T13:52:50;4.22;;;2.95;;
59442;SDS011;45247;47.466;19.004;2023-04-24T13:55:18;5.80;;;3.17;;
59442;SDS011;45247;47.466;19.004;2023-04-24T13:57:46;7.13;;;4.60;;
59442;SDS011;45247;47.466;19.004;2023-04-24T14:00:14;9.43;;;5.30;;
59442;SDS011;45247;47.466;19.004;2023-04-24T14:02:43;7.93;;;5.40;;
59442;SDS011;45247;47.466;19.004;2023-04-24T14:05:13;6.15;;;4.53;;
59442;SDS011;45247;47.466;19.004;2023-04-24T14:07:42;9.88;;;4.80;;
59442;SDS011;45247;47.466;19.004;2023-04-24T14:10:10;6.75;;;5.13;;
59442;SDS011;45247;47.466;19.004;2023-04-24T14:12:38;8.45;;;4.80;;
59442;SDS011;45247;47.466;19.004;2023-04-24T14:15:07;8.68;;;4.85;;
59442;SDS011;45247;47.466;19.004;2023-04-24T14:17:36;7.38;;;4.68;;
59442;SDS011;45247;47.466;19.004;2023-04-24T14:20:05;9.25;;;4.95;;
59442;SDS011;45247;47.466;19.004;2023-04-24T14:22:36;6.35;;;4.50;;
59442;SDS011;45247;47.466;19.004;2023-04-24T14:25:05;8.20;;;5.72;;
59442;SDS011;45247;47.466;19.004;2023-04-24T14:27:34;9.30;;;5.20;;
59442;SDS011;45247;47.466;19.004;2023-04-24T14:30:02;10.13;;;5.45;;
59442;SDS011;45247;47.466;19.004;2023-04-24T14:32:31;8.98;;;5.00;;
59442;SDS011;45247;47.466;19.004;2023-04-24T14:34:59;7.25;;;5.03;;
59442;SDS011;45247;47.466;19.004;2023-04-24T14:37:27;7.40;;;4.85;;
59442;SDS011;45247;47.466;19.004;2023-04-24T14:39:57;7.10;;;5.38;;
59442;SDS011;45247;47.466;19.004;2023-04-24T14:42:45;7.53;;;5.43;;
59442;SDS011;45247;47.466;19.004;2023-04-24T14:45:13;6.63;;;5.63;;
59442;SDS011;45247;47.466;19.004;2023-04-24T14:47:41;5.90;;;5.30;;
59442;SDS011;45247;47.466;19.004;2023-04-24T14:50:10;6.07;;;4.93;;
59442;SDS011;45247;47.466;19.004;2023-04-24T14:52:39;5.65;;;5.10;;
59442;SDS011;45247;47.466;19.004;2023-04-24T14:55:09;5.65;;;4.72;;